Terminal Aerodrome Forecast
Issued by NWS Twin Cities, MN

Home | Current Version | Previous Version | Text Only | Print | Product List | Glossary Off
Versions: 1 2 3 4 5 6 7 8 9 10 11 12 13 14 15

000
FTUS43 KMPX 130500 RRA
TAFSTC
TAF
KSTC 130541Z 1306/1406 03005KT P6SM BKN015
     FM131000 35010KT P6SM BKN009
     FM131400 35015G21KT P6SM BKN020
     FM132100 35019G27KT P6SM BKN035
     FM140100 35014G22KT P6SM BKN035=

USA.gov is the U.S. government's official web portal to all federal, state and local government web resources and services.